createdAt,value
2022-08-17T00:00:43.513Z,33.20
2022-08-17T00:03:39.796Z,37.35
2022-08-17T00:06:28.925Z,37.25
2022-08-17T00:09:18.363Z,37.45
2022-08-17T00:12:41.694Z,33.10
2022-08-17T00:15:12.097Z,36.55
2022-08-17T00:17:57.824Z,37.97
2022-08-17T00:20:44.017Z,39.72
2022-08-17T00:23:29.702Z,35.70
2022-08-17T00:26:16.166Z,33.97
2022-08-17T00:29:21.721Z,37.67
2022-08-17T00:33:12.396Z,40.33
2022-08-17T00:35:17.558Z,35.45
2022-08-17T00:38:06.342Z,41.67
2022-08-17T00:40:59.163Z,34.55
2022-08-17T00:43:51.894Z,33.55
2022-08-17T00:46:43.768Z,41.17
2022-08-17T00:49:31.314Z,38.05
2022-08-17T00:52:22.937Z,41.15
2022-08-17T00:55:10.415Z,35.63
2022-08-17T00:58:00.059Z,37.33
2022-08-17T01:00:47.709Z,38.42
2022-08-17T01:03:36.593Z,37.20
2022-08-17T01:06:24.189Z,40.45
2022-08-17T01:09:10.446Z,36.53
2022-08-17T01:11:56.455Z,39.40
2022-08-17T01:14:42.777Z,36.30
2022-08-17T01:17:28.559Z,35.28
2022-08-17T01:20:14.331Z,36.97
2022-08-17T01:23:01.104Z,37.25
2022-08-17T01:25:51.393Z,38.95
2022-08-17T01:28:53.625Z,38.33
2022-08-17T01:31:56.865Z,38.05
2022-08-17T01:34:43.933Z,36.83
2022-08-17T01:37:39.827Z,38.60
2022-08-17T01:40:39.171Z,38.78
2022-08-17T01:43:32.697Z,40.55
2022-08-17T01:46:28.852Z,36.20
2022-08-17T01:49:14.345Z,37.40
2022-08-17T01:52:09.753Z,40.60
2022-08-17T01:54:56.517Z,43.97
2022-08-17T01:57:45.438Z,32.63
2022-08-17T02:00:59.694Z,37.80
2022-08-17T02:03:37.766Z,35.25
2022-08-17T02:06:27.898Z,38.25
2022-08-17T02:09:16.479Z,34.88
2022-08-17T02:12:37.312Z,36.30
2022-08-17T02:15:12.410Z,35.42
2022-08-17T02:17:58.291Z,35.53
2022-08-17T02:20:44.427Z,35.25
2022-08-17T02:23:34.453Z,32.88
2022-08-17T02:26:23.927Z,28.25
2022-08-17T02:29:12.117Z,30.98
2022-08-17T02:31:58.622Z,28.20
2022-08-17T02:34:44.157Z,31.67
2022-08-17T02:37:30.506Z,31.38
2022-08-17T02:40:16.760Z,33.72
2022-08-17T02:43:18.597Z,34.38
2022-08-17T02:46:04.206Z,26.63
2022-08-17T02:48:50.092Z,30.67
2022-08-17T02:51:35.762Z,29.98
2022-08-17T02:54:40.591Z,27.60
2022-08-17T02:57:27.049Z,27.67
2022-08-17T03:00:18.006Z,32.58
2022-08-17T03:03:06.118Z,28.35
2022-08-17T03:05:51.711Z,31.25
2022-08-17T03:08:38.187Z,28.80
2022-08-17T03:11:24.060Z,27.08
2022-08-17T03:14:09.757Z,30.40
2022-08-17T03:16:55.687Z,27.75
2022-08-17T03:19:42.968Z,34.70
2022-08-17T03:22:36.761Z,59.72
2022-08-17T03:25:33.466Z,68.75
2022-08-17T03:28:21.644Z,28.15
2022-08-17T03:31:07.525Z,30.95
2022-08-17T03:33:53.206Z,34.28
2022-08-17T03:36:39.178Z,35.80
2022-08-17T03:39:24.948Z,29.77
2022-08-17T03:42:31.910Z,63.13
2022-08-17T03:45:42.837Z,28.80
2022-08-17T03:48:47.649Z,31.30
2022-08-17T03:51:51.790Z,36.60
2022-08-17T03:54:55.962Z,36.47
2022-08-17T03:57:41.778Z,39.33
2022-08-17T04:00:28.252Z,37.08
2022-08-17T04:03:14.608Z,35.95
2022-08-17T04:06:02.217Z,38.95
2022-08-17T04:08:48.192Z,36.25
2022-08-17T04:11:35.326Z,45.53
2022-08-17T04:14:21.219Z,40.53
2022-08-17T04:17:07.043Z,43.78
2022-08-17T04:19:53.768Z,41.30
2022-08-17T04:22:39.411Z,42.38
2022-08-17T04:25:27.354Z,43.55
2022-08-17T04:28:15.708Z,43.22
2022-08-17T04:31:02.127Z,43.65
2022-08-17T04:33:48.177Z,42.80
2022-08-17T04:36:33.754Z,43.40
2022-08-17T04:39:19.455Z,39.03
2022-08-17T04:42:16.953Z,45.55
2022-08-17T04:45:04.342Z,53.65
2022-08-17T04:47:50.184Z,43.50
2022-08-17T04:50:43.409Z,42.78
2022-08-17T04:53:30.217Z,51.00
2022-08-17T04:56:18.226Z,52.80
2022-08-17T04:59:10.341Z,61.03
2022-08-17T05:01:56.015Z,64.05
2022-08-17T05:04:42.109Z,69.45
2022-08-17T05:07:31.435Z,77.40
2022-08-17T05:10:17.386Z,62.38
2022-08-17T05:13:09.855Z,84.93
2022-08-17T05:16:01.461Z,79.25
2022-08-17T05:18:47.694Z,72.22
2022-08-17T05:21:33.489Z,63.90
2022-08-17T05:24:40.765Z,71.07
2022-08-17T05:27:25.414Z,70.25
2022-08-17T05:30:17.492Z,67.55
2022-08-17T05:33:13.006Z,67.78
2022-08-17T05:35:59.829Z,65.43
2022-08-17T05:38:45.558Z,72.22
2022-08-17T05:41:31.364Z,66.30
2022-08-17T05:44:17.187Z,68.05
2022-08-17T05:47:05.143Z,75.50
2022-08-17T05:49:55.608Z,83.57
2022-08-17T05:52:50.660Z,80.75
2022-08-17T05:55:48.800Z,67.50
2022-08-17T05:58:58.374Z,71.72
2022-08-17T06:01:49.585Z,66.90
2022-08-17T06:04:48.281Z,75.00
2022-08-17T06:07:53.766Z,66.80
2022-08-17T06:11:02.538Z,61.25
2022-08-17T06:14:09.269Z,68.65
2022-08-17T06:17:04.363Z,68.60
2022-08-17T06:19:57.579Z,61.97
2022-08-17T06:22:51.969Z,58.13
2022-08-17T06:25:45.474Z,52.58
2022-08-17T06:29:08.841Z,51.28
2022-08-17T06:34:52.531Z,42.83
2022-08-17T06:37:41.099Z,46.42
2022-08-17T06:40:45.683Z,42.25
2022-08-17T06:43:47.463Z,44.85
2022-08-17T06:46:43.577Z,47.97
2022-08-17T06:49:55.362Z,45.03
2022-08-17T06:52:59.498Z,38.95
2022-08-17T06:56:13.942Z,45.80
2022-08-17T06:59:00.953Z,43.13
2022-08-17T07:01:49.990Z,45.53
2022-08-17T07:04:35.985Z,43.80
2022-08-17T07:07:40.882Z,42.92
2022-08-17T07:10:29.265Z,47.83
2022-08-17T07:13:33.128Z,45.80
2022-08-17T07:16:32.387Z,45.38
2022-08-17T07:19:22.741Z,46.70
2022-08-17T07:22:26.274Z,47.97
2022-08-17T07:25:18.437Z,48.45
2022-08-17T07:28:07.792Z,54.85
2022-08-17T07:30:54.648Z,46.85
2022-08-17T07:33:57.718Z,46.30
2022-08-17T07:36:43.218Z,53.75
2022-08-17T07:39:29.211Z,54.53
2022-08-17T07:42:15.114Z,52.67
2022-08-17T07:45:23.036Z,49.53
2022-08-17T07:48:25.611Z,54.72
2022-08-17T07:51:19.041Z,52.63
2022-08-17T07:54:25.192Z,50.58
2022-08-17T07:57:12.181Z,55.95
2022-08-17T08:00:01.362Z,57.65
2022-08-17T08:03:00.663Z,55.60
2022-08-17T08:05:57.389Z,55.50
2022-08-17T08:08:50.445Z,54.15
2022-08-17T08:14:33.587Z,59.50
2022-08-17T08:17:25.518Z,49.83
2022-08-17T08:20:51.312Z,50.73
2022-08-17T08:23:27.391Z,48.08
2022-08-17T08:26:39.474Z,43.60
2022-08-17T08:29:54.355Z,40.90
2022-08-17T08:32:45.479Z,41.25
2022-08-17T08:35:39.578Z,38.25
2022-08-17T08:39:01.885Z,35.72
2022-08-17T08:42:02.374Z,37.28
2022-08-17T08:45:08.873Z,35.65
2022-08-17T08:48:23.168Z,35.00
2022-08-17T08:51:40.778Z,37.10
2022-08-17T08:54:44.353Z,39.22
2022-08-17T08:57:48.262Z,39.10
2022-08-17T09:00:40.670Z,42.17
2022-08-17T09:04:25.173Z,45.97
2022-08-17T09:07:36.752Z,42.03
2022-08-17T09:10:25.513Z,38.13
2022-08-17T09:13:29.764Z,38.22
2022-08-17T09:16:29.667Z,49.97
2022-08-17T09:19:20.914Z,47.83
2022-08-17T09:22:42.711Z,38.67
2022-08-17T09:25:33.149Z,35.90
2022-08-17T09:28:33.457Z,45.63
2022-08-17T09:31:24.652Z,52.90
2022-08-17T09:34:19.479Z,43.88
2022-08-17T09:37:42.438Z,47.40
2022-08-17T09:40:52.176Z,42.97
2022-08-17T09:44:08.506Z,43.70
2022-08-17T09:47:19.299Z,35.42
2022-08-17T09:51:04.093Z,23.08
2022-08-17T09:53:30.915Z,29.77
2022-08-17T09:56:40.001Z,21.58
2022-08-17T09:59:37.137Z,21.23
2022-08-17T10:02:51.622Z,23.60
2022-08-17T10:06:07.863Z,24.70
2022-08-17T10:09:22.168Z,20.17
2022-08-17T10:12:46.453Z,25.30
2022-08-17T10:15:54.779Z,25.55
2022-08-17T10:19:02.118Z,24.23
2022-08-17T10:22:32.362Z,27.35
2022-08-17T10:25:53.605Z,36.03
2022-08-17T10:28:47.768Z,32.95
2022-08-17T10:31:42.339Z,25.00
2022-08-17T10:34:56.946Z,21.85
2022-08-17T10:38:08.757Z,20.10
2022-08-17T10:41:24.667Z,15.55
2022-08-17T10:44:48.355Z,16.95
2022-08-17T10:50:59.884Z,12.30
2022-08-17T10:53:49.439Z,14.38
2022-08-17T10:56:49.620Z,9.40
2022-08-17T10:59:35.511Z,10.23
2022-08-17T11:02:26.074Z,11.65
2022-08-17T11:05:31.653Z,12.88
2022-08-17T11:08:21.127Z,17.40
2022-08-17T11:11:36.077Z,16.20
2022-08-17T11:14:34.899Z,14.82
2022-08-17T11:17:58.176Z,17.92
2022-08-17T11:21:08.787Z,19.05
2022-08-17T11:24:43.397Z,18.77
2022-08-17T11:27:35.051Z,16.55
2022-08-17T11:30:40.894Z,19.30
2022-08-17T11:33:29.222Z,21.70
2022-08-17T11:36:14.768Z,24.33
2022-08-17T11:39:31.755Z,18.20
2022-08-17T11:42:55.075Z,18.08
2022-08-17T11:49:00.874Z,21.40
2022-08-17T11:52:11.283Z,19.50
2022-08-17T11:55:12.420Z,20.83
2022-08-17T11:58:25.584Z,22.38
2022-08-17T12:01:50.333Z,29.40
2022-08-17T12:04:36.352Z,26.73
2022-08-17T12:07:23.317Z,27.88
2022-08-17T12:10:12.205Z,19.33
2022-08-17T12:12:59.625Z,22.10
2022-08-17T12:15:49.727Z,17.95
2022-08-17T12:18:39.998Z,18.85
2022-08-17T12:21:51.414Z,16.45
2022-08-17T12:25:16.463Z,17.73
2022-08-17T12:28:06.046Z,18.30
2022-08-17T12:30:54.225Z,14.98
2022-08-17T12:33:44.663Z,16.27
2022-08-17T12:36:32.044Z,19.38
2022-08-17T12:39:25.250Z,14.20
2022-08-17T12:42:23.786Z,18.40
2022-08-17T12:45:32.045Z,13.95
2022-08-17T12:48:27.352Z,12.27
2022-08-17T12:51:13.289Z,18.58
2022-08-17T12:53:59.302Z,12.18
2022-08-17T12:56:46.412Z,10.38
2022-08-17T12:59:33.400Z,11.63
2022-08-17T13:02:28.325Z,10.52
2022-08-17T13:05:30.495Z,12.77
2022-08-17T13:08:19.886Z,15.27
2022-08-17T13:11:25.576Z,10.20
2022-08-17T13:14:11.766Z,12.95
2022-08-17T13:17:00.435Z,9.73
2022-08-17T13:19:51.118Z,11.70
2022-08-17T13:22:37.125Z,13.27
2022-08-17T13:25:23.533Z,11.25
2022-08-17T13:28:18.917Z,12.43
2022-08-17T13:31:52.379Z,10.95
2022-08-17T13:35:12.921Z,12.95
2022-08-17T13:38:11.769Z,12.23
2022-08-17T13:40:57.490Z,12.07
2022-08-17T13:43:45.857Z,8.50
2022-08-17T13:46:33.389Z,11.75
2022-08-17T13:49:20.881Z,8.10
2022-08-17T13:52:08.544Z,10.85
2022-08-17T13:54:55.649Z,9.00
2022-08-17T13:57:46.728Z,7.53
2022-08-17T14:00:33.767Z,11.73
2022-08-17T14:03:20.471Z,10.40
2022-08-17T14:06:06.633Z,10.23
2022-08-17T14:08:55.723Z,9.02
2022-08-17T14:11:42.334Z,10.95
2022-08-17T14:14:29.441Z,9.13
2022-08-17T14:17:15.865Z,11.35
2022-08-17T14:20:01.791Z,12.45
2022-08-17T14:22:53.892Z,11.73
2022-08-17T14:25:40.154Z,9.88
2022-08-17T14:28:25.499Z,10.25
2022-08-17T14:31:13.474Z,13.23
2022-08-17T14:33:59.525Z,12.18
2022-08-17T14:36:48.427Z,9.38
2022-08-17T14:39:34.581Z,13.77
2022-08-17T14:42:20.574Z,11.38
2022-08-17T14:45:30.186Z,13.57
2022-08-17T14:48:15.900Z,13.02
2022-08-17T14:51:01.589Z,13.77
2022-08-17T14:53:48.583Z,11.40
2022-08-17T14:56:35.378Z,14.82
2022-08-17T14:59:23.916Z,11.90
2022-08-17T15:02:10.795Z,14.25
2022-08-17T15:05:05.796Z,9.10
2022-08-17T15:07:53.447Z,16.45
2022-08-17T15:10:39.300Z,14.02
2022-08-17T15:13:26.557Z,13.57
2022-08-17T15:16:13.783Z,16.65
2022-08-17T15:18:59.885Z,13.88
2022-08-17T15:21:47.058Z,16.90
2022-08-17T15:24:33.660Z,15.98
2022-08-17T15:27:32.196Z,14.45
2022-08-17T15:30:19.240Z,15.23
2022-08-17T15:33:04.950Z,22.48
2022-08-17T15:35:51.965Z,16.33
2022-08-17T15:38:40.910Z,15.07
2022-08-17T15:41:31.197Z,20.05
2022-08-17T15:44:17.060Z,14.95
2022-08-17T15:47:02.745Z,17.25
2022-08-17T15:49:48.790Z,20.80
2022-08-17T15:52:40.512Z,15.15
2022-08-17T15:55:28.472Z,14.65
2022-08-17T15:58:14.481Z,17.40
2022-08-17T16:01:16.630Z,18.52
2022-08-17T16:04:29.920Z,22.73
2022-08-17T16:07:17.556Z,16.73
2022-08-17T16:10:06.153Z,18.05
2022-08-17T16:12:51.883Z,18.55
2022-08-17T16:15:38.124Z,24.38
2022-08-17T16:18:30.750Z,26.55
2022-08-17T16:21:25.721Z,21.05
2022-08-17T16:24:13.136Z,19.83
2022-08-17T16:26:59.789Z,26.10
2022-08-17T16:29:46.393Z,24.15
2022-08-17T16:32:37.677Z,23.15
2022-08-17T16:35:26.907Z,17.13
2022-08-17T16:38:14.553Z,14.40
2022-08-17T16:41:00.438Z,18.80
2022-08-17T16:43:47.141Z,16.25
2022-08-17T16:46:33.537Z,16.35
2022-08-17T16:49:35.574Z,15.32
2022-08-17T16:52:32.494Z,14.43
2022-08-17T16:55:21.842Z,12.82
2022-08-17T16:58:08.825Z,20.05
2022-08-17T17:00:57.182Z,14.20
2022-08-17T17:03:46.742Z,17.70
2022-08-17T17:06:54.352Z,19.30
2022-08-17T17:09:42.017Z,15.57
2022-08-17T17:13:01.273Z,15.37
2022-08-17T17:15:55.467Z,17.48
2022-08-17T17:19:26.309Z,14.38
2022-08-17T17:22:26.890Z,17.23
2022-08-17T17:25:21.564Z,14.80
2022-08-17T17:28:27.856Z,17.42
2022-08-17T17:31:21.075Z,15.05
2022-08-17T17:34:10.321Z,13.52
2022-08-17T17:37:02.139Z,15.98
2022-08-17T17:39:54.857Z,17.27
2022-08-17T17:45:56.473Z,14.70
2022-08-17T17:48:42.042Z,15.65
2022-08-17T17:52:09.924Z,14.93
2022-08-17T17:55:02.973Z,12.35
2022-08-17T17:58:10.742Z,14.73
2022-08-17T18:01:22.493Z,21.02
2022-08-17T18:04:21.301Z,20.90
2022-08-17T18:07:10.151Z,17.42
2022-08-17T18:10:05.702Z,18.02
2022-08-17T18:13:15.479Z,19.52
2022-08-17T18:16:04.025Z,15.20
2022-08-17T18:18:52.393Z,18.90
2022-08-17T18:21:44.453Z,20.80
2022-08-17T18:24:33.966Z,18.35
2022-08-17T18:27:25.595Z,22.38
2022-08-17T18:30:14.596Z,22.80
2022-08-17T18:33:30.078Z,18.63
2022-08-17T18:36:34.113Z,18.55
2022-08-17T18:39:26.565Z,13.70
2022-08-17T18:42:26.362Z,19.67
2022-08-17T18:45:13.797Z,21.13
2022-08-17T18:48:00.180Z,18.33
2022-08-17T18:50:46.725Z,17.02
2022-08-17T18:53:36.362Z,13.57
2022-08-17T18:56:35.470Z,12.30
2022-08-17T18:59:24.348Z,13.35
2022-08-17T19:02:44.180Z,15.82
2022-08-17T19:05:40.966Z,18.48
2022-08-17T19:08:29.847Z,15.85
2022-08-17T19:11:27.059Z,15.50
2022-08-17T19:14:16.690Z,18.38
2022-08-17T19:17:09.927Z,16.67
2022-08-17T19:20:17.171Z,12.15
2022-08-17T19:23:10.877Z,15.48
2022-08-17T19:26:01.668Z,13.25
2022-08-17T19:29:02.303Z,18.30
2022-08-17T19:31:48.569Z,28.50
2022-08-17T19:34:36.990Z,16.42
2022-08-17T19:37:49.482Z,24.88
2022-08-17T19:41:01.862Z,13.00
2022-08-17T19:44:32.715Z,14.68
2022-08-17T19:47:54.212Z,14.68
2022-08-17T19:50:57.581Z,22.40
2022-08-17T19:54:08.978Z,16.48
2022-08-17T19:57:13.896Z,18.65
2022-08-17T20:00:06.615Z,19.35
2022-08-17T20:03:06.091Z,19.00
2022-08-17T20:06:14.054Z,20.75
2022-08-17T20:09:29.656Z,22.55
2022-08-17T20:12:34.830Z,17.92
2022-08-17T20:15:27.169Z,12.45
2022-08-17T20:18:36.324Z,18.50
2022-08-17T20:21:38.991Z,23.13
2022-08-17T20:24:24.607Z,22.98
2022-08-17T20:27:31.311Z,16.75
2022-08-17T20:30:24.252Z,19.38
2022-08-17T20:33:26.322Z,26.83
2022-08-17T20:36:19.378Z,20.83
2022-08-17T20:39:05.435Z,20.70
2022-08-17T20:42:28.123Z,14.95
2022-08-17T20:45:26.432Z,16.48
2022-08-17T20:48:36.343Z,18.77
2022-08-17T20:51:38.529Z,22.65
2022-08-17T20:54:36.627Z,12.47
2022-08-17T20:57:31.830Z,18.10
2022-08-17T21:00:29.726Z,19.35
2022-08-17T21:03:24.262Z,15.40
2022-08-17T21:06:17.199Z,19.98
2022-08-17T21:09:12.703Z,15.75
2022-08-17T21:12:04.647Z,12.63
2022-08-17T21:15:01.710Z,19.80
2022-08-17T21:17:59.135Z,18.70
2022-08-17T21:21:02.979Z,14.80
2022-08-17T21:24:30.676Z,17.95
2022-08-17T21:27:26.136Z,23.05
2022-08-17T21:30:29.960Z,16.38
2022-08-17T21:33:31.800Z,19.75
2022-08-17T21:36:25.842Z,20.10
2022-08-17T21:39:19.388Z,18.17
2022-08-17T21:42:12.554Z,20.40
2022-08-17T21:45:30.169Z,20.17
2022-08-17T21:48:24.512Z,19.92
2022-08-17T21:51:29.756Z,16.30
2022-08-17T21:54:24.338Z,16.92
2022-08-17T21:57:20.979Z,19.63
2022-08-17T22:00:17.247Z,19.17
2022-08-17T22:03:06.967Z,14.32
2022-08-17T22:05:52.817Z,18.08
2022-08-17T22:08:38.541Z,21.00
2022-08-17T22:11:24.155Z,15.23
2022-08-17T22:14:18.758Z,19.52
2022-08-17T22:17:38.086Z,20.85
2022-08-17T22:20:24.313Z,20.02
2022-08-17T22:23:31.930Z,21.98
2022-08-17T22:26:20.125Z,22.45
2022-08-17T22:29:05.544Z,17.40
2022-08-17T22:31:56.254Z,16.13
2022-08-17T22:34:42.142Z,16.85
2022-08-17T22:37:29.430Z,17.98
2022-08-17T22:40:26.485Z,20.83
2022-08-17T22:43:13.368Z,21.05
2022-08-17T22:46:00.259Z,17.33
2022-08-17T22:48:50.138Z,17.05
2022-08-17T22:51:42.793Z,14.13
2022-08-17T22:54:47.552Z,15.23
2022-08-17T22:57:54.106Z,13.35
2022-08-17T23:00:44.345Z,15.80
2022-08-17T23:03:30.137Z,16.00
2022-08-17T23:06:16.047Z,11.57
2022-08-17T23:12:26.547Z,18.20
2022-08-17T23:15:33.814Z,17.38
2022-08-17T23:18:38.504Z,18.85
2022-08-17T23:21:29.472Z,10.93
2022-08-17T23:24:21.365Z,17.30
2022-08-17T23:27:07.564Z,15.10
2022-08-17T23:29:55.709Z,15.18
2022-08-17T23:32:53.417Z,9.60
2022-08-17T23:35:41.111Z,11.05
2022-08-17T23:38:27.726Z,11.75
2022-08-17T23:41:20.086Z,12.50
2022-08-17T23:44:07.203Z,13.55
2022-08-17T23:46:53.785Z,12.45
2022-08-17T23:49:40.521Z,19.52
2022-08-17T23:52:27.957Z,15.57
2022-08-17T23:55:14.576Z,11.23
2022-08-17T23:58:04.113Z,14.57
